Time;durP1;ratioP1;P1;durP2;ratioP2;P2;SDS_P1;SDS_P2;PMS_P1;PMS_P2;Temp;Humidity;BMP_temperature;BMP_pressure;BME280_temperature;BME280_humidity;BME280_pressure;Samples;Min_cycle;Max_cycle;Signal;HPM_P1;HPM_P2
2023/06/26 00:00:27;;;;;;;9.27;5.85;;;;;;;26.68;63.17;100794.00;4969606;28;20110;-83
2023/06/26 00:02:54;;;;;;;7.97;6.18;;;;;;;26.53;63.89;100769.13;4987491;28;20113;-89
2023/06/26 00:05:19;;;;;;;6.30;5.70;;;;;;;26.64;63.53;100779.72;4973065;28;20031;-88
2023/06/26 00:07:45;;;;;;;6.88;6.03;;;;;;;26.60;62.60;100781.56;4987619;28;20023;-88
2023/06/26 00:10:11;;;;;;;9.55;6.68;;;;;;;26.65;63.28;100792.25;4974114;28;20019;-89
2023/06/26 00:12:36;;;;;;;;;;;;;;;26.72;63.50;100793.06;4983757;28;20042;-89
2023/06/26 00:15:02;;;;;;;7.00;5.80;;;;;;;26.64;63.82;100787.78;4980410;28;19926;-89
2023/06/26 00:17:28;;;;;;;6.65;5.82;;;;;;;26.64;63.39;100789.56;4967733;28;20706;-87
2023/06/26 00:19:54;;;;;;;9.07;6.10;;;;;;;26.64;63.71;100792.25;4986228;28;20029;-89
2023/06/26 00:22:21;;;;;;;7.05;6.18;;;;;;;26.65;62.77;100788.66;4990078;28;20034;-90
2023/06/26 00:24:46;;;;;;;6.95;5.80;;;;;;;26.66;62.90;100795.81;4969786;28;20111;-89
2023/06/26 00:27:12;;;;;;;7.18;6.07;;;;;;;26.64;63.14;100794.94;4995033;28;20030;-87
2023/06/26 00:29:39;;;;;;;6.82;5.97;;;;;;;26.53;63.04;100776.28;4986724;28;20037;-89
2023/06/26 00:32:05;;;;;;;7.13;5.68;;;;;;;26.65;63.00;100794.91;5005728;28;20045;-89
2023/06/26 00:34:31;;;;;;;9.52;6.00;;;;;;;26.55;63.26;100778.03;5001997;28;20058;-88
2023/06/26 00:36:56;;;;;;;6.18;5.57;;;;;;;26.50;63.51;100762.91;5006526;28;20112;-89
2023/06/26 00:39:25;;;;;;;;;;;;;;;26.69;63.31;100791.31;5005294;28;20066;-88
2023/06/26 00:41:53;;;;;;;6.45;5.63;;;;;;;26.45;63.62;100749.56;5001305;28;20016;-88
2023/06/26 00:44:19;;;;;;;7.38;6.13;;;;;;;26.52;63.25;100761.09;4997140;28;20176;-87
2023/06/26 00:46:46;;;;;;;7.45;5.97;;;;;;;26.61;63.54;100782.47;5013305;28;20543;-89
2023/06/26 00:49:12;;;;;;;7.50;6.00;;;;;;;26.49;63.38;100758.47;4995926;28;20022;-88
2023/06/26 00:51:39;;;;;;;6.45;5.60;;;;;;;26.49;63.34;100747.75;4993536;28;20014;-88
2023/06/26 00:54:04;;;;;;;6.47;5.88;;;;;;;26.62;63.46;100770.84;4995919;28;20029;-88
2023/06/26 00:56:31;;;;;;;7.00;5.78;;;;;;;26.46;62.65;100743.34;5012411;28;20403;-88
2023/06/26 00:58:57;;;;;;;7.18;5.88;;;;;;;26.41;63.99;100746.03;5011009;28;20018;-88
2023/06/26 01:01:25;;;;;;;;;;;;;;;26.62;63.08;100770.84;5011377;28;20085;-88
2023/06/26 01:03:52;;;;;;;6.93;5.80;;;;;;;26.46;63.66;100742.41;4991013;28;20307;-88
2023/06/26 01:06:19;;;;;;;6.28;5.65;;;;;;;26.57;63.72;100768.22;4994058;28;20505;-88
2023/06/26 01:08:45;;;;;;;7.57;6.10;;;;;;;26.46;63.33;100740.66;4983639;28;20121;-88
2023/06/26 01:11:12;;;;;;;6.13;5.50;;;;;;;26.49;63.17;100751.31;5006172;28;20025;-89
2023/06/26 01:13:40;;;;;;;7.63;6.47;;;;;;;26.35;63.44;100731.84;5021592;28;20047;-89
2023/06/26 01:16:07;;;;;;;6.88;5.78;;;;;;;26.38;63.15;100731.81;5012152;28;20022;-89
2023/06/26 01:18:33;;;;;;;7.55;5.85;;;;;;;26.56;63.64;100755.75;4999200;28;20113;-88
2023/06/26 01:21:01;;;;;;;7.70;6.20;;;;;;;26.45;63.07;100736.19;4986036;28;20032;-90
2023/06/26 01:24:06;;;;;;;6.90;5.88;;;;;;;26.57;62.96;100757.50;4997870;28;20026;-89
2023/06/26 01:26:35;;;;;;;6.82;5.47;;;;;;;26.55;62.93;100750.34;5017400;28;20103;-90
2023/06/26 01:29:01;;;;;;;8.07;6.25;;;;;;;26.54;62.90;100746.81;5010491;28;20022;-89
2023/06/26 01:31:27;;;;;;;7.28;6.05;;;;;;;26.56;62.94;100750.38;4991747;28;20520;-90
2023/06/26 01:33:54;;;;;;;6.72;6.00;;;;;;;26.40;62.56;100724.66;4988051;28;20030;-89
2023/06/26 01:36:19;;;;;;;7.35;5.88;;;;;;;26.50;63.81;100752.19;5016314;28;20034;-90
2023/06/26 01:38:45;;;;;;;;;;;;;;;26.57;63.06;100753.94;4976643;28;20084;-87
2023/06/26 01:41:10;;;;;;;6.53;5.70;;;;;;;26.35;63.21;100723.81;5001863;28;19969;-88
2023/06/26 01:44:00;;;;;;;7.45;5.88;;;;;;;26.53;62.86;100750.38;5002980;28;20492;-87
2023/06/26 01:46:34;;;;;;;7.63;6.13;;;;;;;26.41;63.03;100723.72;5003545;28;20700;-88
2023/06/26 01:49:06;;;;;;;8.23;6.30;;;;;;;26.43;62.75;100735.31;4993954;28;20033;-89
2023/06/26 01:51:39;;;;;;;7.68;6.18;;;;;;;26.37;63.24;100722.91;5001341;28;20101;-92
2023/06/26 01:54:09;;;;;;;6.80;6.10;;;;;;;26.47;62.52;100744.22;4998992;28;20033;-92
2023/06/26 01:56:35;;;;;;;7.80;6.22;;;;;;;26.50;62.86;100750.44;4987576;28;20423;-91
2023/06/26 01:59:01;;;;;;;7.60;6.10;;;;;;;26.41;62.94;100740.69;4979928;28;20161;-92
2023/06/26 02:01:30;;;;;;;;;;;;;;;26.51;62.51;100752.19;4975945;28;20525;-91
2023/06/26 02:03:59;;;;;;;7.72;6.05;;;;;;;26.36;62.64;100725.59;5002583;28;20404;-92
2023/06/26 02:06:25;;;;;;;10.52;6.50;;;;;;;26.39;62.48;100726.44;4994789;28;20099;-92
2023/06/26 02:08:52;;;;;;;;;;;;;;;26.50;62.91;100739.72;5016316;28;20117;-91
2023/06/26 02:11:18;;;;;;;8.30;6.77;;;;;;;26.26;62.33;100703.38;5003210;28;19988;-93
2023/06/26 02:13:47;;;;;;;7.13;6.03;;;;;;;26.26;63.51;100700.72;5007806;28;20113;-91
2023/06/26 02:16:12;;;;;;;7.53;5.90;;;;;;;26.48;62.22;100735.25;4976366;28;20033;-92
2023/06/26 02:18:39;;;;;;;;;;;;;;;26.44;62.72;100726.41;4996615;28;20030;-92
2023/06/26 02:21:07;;;;;;;8.27;6.20;;;;;;;26.40;62.51;100722.84;5008757;28;20174;-91
2023/06/26 02:23:33;;;;;;;8.77;6.50;;;;;;;26.33;63.25;100713.13;4986350;28;20156;-92
2023/06/26 02:25:58;;;;;;;;;;;;;;;26.47;62.91;100725.47;5010611;28;20022;-90
2023/06/26 02:28:24;;;;;;;6.65;5.90;;;;;;;26.45;63.39;100722.78;5010402;28;19918;-90
2023/06/26 02:30:49;;;;;;;6.85;6.15;;;;;;;26.34;62.74;100708.66;5005246;28;20515;-90
2023/06/26 02:33:15;;;;;;;;;;;;;;;26.40;62.69;100721.97;5012318;28;20026;-90
2023/06/26 02:35:41;;;;;;;8.20;6.10;;;;;;;26.26;62.35;100697.16;4978810;28;19917;-91
2023/06/26 02:38:08;;;;;;;10.00;6.50;;;;;;;25.99;62.20;100649.28;5014027;28;20032;-91
2023/06/26 02:40:33;;;;;;;8.10;6.30;;;;;;;26.39;62.51;100718.44;4991954;28;20022;-91
2023/06/26 02:43:00;;;;;;;;;;;;;;;26.38;62.56;100719.31;5001788;28;20085;-91
2023/06/26 02:45:26;;;;;;;9.53;6.80;;;;;;;26.40;62.12;100721.97;4992165;28;19918;-92
2023/06/26 02:47:51;;;;;;;6.70;5.85;;;;;;;26.37;62.13;100717.56;5004935;28;20120;-90
2023/06/26 02:50:17;;;;;;;9.00;6.50;;;;;;;26.38;62.05;100718.44;5011753;28;20052;-91
2023/06/26 02:52:43;;;;;;;;;;;;;;;26.40;62.32;100725.53;5009677;28;20043;-91
2023/06/26 02:55:10;;;;;;;7.40;6.50;;;;;;;25.99;62.78;100662.66;5017593;28;20012;-91
2023/06/26 02:57:36;;;;;;;8.93;6.32;;;;;;;26.18;62.57;100687.44;5011648;28;20109;-93
2023/06/26 03:00:07;;;;;;;9.32;6.40;;;;;;;26.37;62.37;100712.19;4982629;28;20116;-92
2023/06/26 03:02:35;;;;;;;9.02;6.45;;;;;;;26.34;62.50;100720.25;4995232;28;20037;-92
2023/06/26 03:05:02;;;;;;;7.38;6.00;;;;;;;26.17;62.37;100696.34;4992935;28;20065;-90
2023/06/26 03:07:39;;;;;;;8.88;6.45;;;;;;;26.25;62.54;100708.78;5001830;28;20038;-92
2023/06/26 03:10:16;;;;;;;8.57;6.47;;;;;;;26.35;62.29;100718.44;5011284;28;20026;-92
2023/06/26 03:12:42;;;;;;;8.00;6.47;;;;;;;26.18;62.23;100694.56;5027469;28;20045;-91
2023/06/26 03:15:13;;;;;;;;;;;;;;;26.35;62.56;100707.75;4985316;28;20029;-92
2023/06/26 03:17:39;;;;;;;8.10;6.68;;;;;;;26.27;62.54;100707.84;5016300;28;19954;-92
2023/06/26 03:20:07;;;;;;;9.20;6.50;;;;;;;26.28;62.21;100717.63;5001811;28;20426;-89
2023/06/26 03:22:33;;;;;;;10.27;6.05;;;;;;;26.32;62.10;100716.69;4995442;28;20516;-89
2023/06/26 03:25:00;;;;;;;7.82;6.40;;;;;;;25.92;62.55;100650.25;4994241;28;20026;-90
2023/06/26 03:27:25;;;;;;;7.43;5.90;;;;;;;26.03;62.42;100671.53;5011874;28;20037;-90
2023/06/26 03:29:52;;;;;;;;;;;;;;;26.32;62.29;100718.50;5009638;28;20026;-88
2023/06/26 03:32:17;;;;;;;7.50;6.45;;;;;;;26.22;62.24;100708.78;5013760;28;19925;-88
2023/06/26 03:34:43;;;;;;;;;;;;;;;26.33;62.40;100725.63;5008427;28;20152;-87
2023/06/26 03:37:08;;;;;;;8.85;6.40;;;;;;;26.30;62.93;100720.31;5000132;28;19940;-87
2023/06/26 03:39:34;;;;;;;;;;;;;;;26.31;62.83;100728.34;5001793;28;20148;-87
2023/06/26 03:42:00;;;;;;;9.60;6.30;;;;;;;26.22;63.09;100719.50;5011743;28;19918;-87
2023/06/26 03:44:27;;;;;;;8.45;6.45;;;;;;;26.28;62.44;100731.03;4985740;28;20817;-87
2023/06/26 03:46:52;;;;;;;9.88;6.95;;;;;;;26.25;62.79;100724.84;5002614;28;20409;-88
2023/06/26 03:49:18;;;;;;;;;;;;;;;26.30;63.28;100729.22;5007799;28;20488;-87
2023/06/26 03:51:44;;;;;;;7.43;6.15;;;;;;;26.24;63.12;100726.59;5021558;28;19924;-87
2023/06/26 03:54:10;;;;;;;7.60;6.80;;;;;;;26.18;63.01;100722.22;5025236;28;20034;-88
2023/06/26 03:56:35;;;;;;;;;;;;;;;26.30;63.40;100733.69;5010783;28;20455;-88
2023/06/26 03:59:01;;;;;;;7.70;6.32;;;;;;;26.25;62.92;100735.56;5007148;28;19913;-89
2023/06/26 04:01:27;;;;;;;8.77;6.82;;;;;;;26.26;63.62;100730.16;5013817;28;20109;-87
2023/06/26 04:03:53;;;;;;;;;;;;;;;26.32;62.56;100730.09;5008848;28;20463;-87
2023/06/26 04:06:18;;;;;;;7.60;6.80;;;;;;;26.20;63.21;100719.50;4993739;28;19924;-88
2023/06/26 04:08:44;;;;;;;7.25;6.50;;;;;;;26.26;63.14;100724.81;5002195;28;20037;-88
2023/06/26 04:11:16;;;;;;;11.23;7.45;;;;;;;26.23;63.21;100734.69;5017789;28;20080;-93
2023/06/26 04:13:46;;;;;;;10.50;7.75;;;;;;;26.23;62.84;100732.00;4993234;28;20037;-92
2023/06/26 04:16:14;;;;;;;12.98;8.18;;;;;;;26.14;62.97;100707.09;4996934;28;20523;-92
2023/06/26 04:18:47;;;;;;;11.23;8.10;;;;;;;26.10;63.38;100702.69;4994597;28;20474;-92
2023/06/26 04:21:16;;;;;;;10.23;7.72;;;;;;;26.23;62.87;100740.91;5003271;28;20026;-92
2023/06/26 04:23:45;;;;;;;10.77;7.55;;;;;;;26.19;63.14;100729.34;5005045;28;20120;-91
2023/06/26 04:26:14;;;;;;;14.90;7.88;;;;;;;26.20;62.76;100731.13;4998108;28;20112;-90
2023/06/26 04:28:42;;;;;;;8.75;6.68;;;;;;;26.13;63.14;100721.38;5007369;28;20087;-90
2023/06/26 04:31:08;;;;;;;8.98;7.00;;;;;;;26.20;63.35;100735.56;4991996;28;20051;-90
2023/06/26 04:33:37;;;;;;;8.48;6.90;;;;;;;26.24;62.92;100747.16;4978234;28;20041;-91
2023/06/26 04:36:06;;;;;;;11.95;7.20;;;;;;;26.16;63.07;100734.75;4990930;28;20019;-91
2023/06/26 04:38:33;;;;;;;9.52;7.30;;;;;;;26.23;62.71;100756.09;4990374;28;20060;-92
2023/06/26 04:41:00;;;;;;;9.57;7.45;;;;;;;26.23;63.11;100762.34;4982966;28;20117;-91
2023/06/26 04:43:35;;;;;;;10.18;7.78;;;;;;;26.16;62.78;100747.22;4981382;28;20030;-90
2023/06/26 04:46:03;;;;;;;9.05;7.28;;;;;;;26.14;62.78;100741.00;4953584;28;20516;-90
2023/06/26 04:48:30;;;;;;;9.18;7.82;;;;;;;26.24;62.82;100760.53;4982367;28;20029;-90
2023/06/26 04:50:58;;;;;;;9.30;7.43;;;;;;;26.27;62.50;100760.47;4993371;28;20038;-90
2023/06/26 04:53:25;;;;;;;9.73;7.47;;;;;;;26.09;62.73;100754.44;4960494;28;20100;-89
2023/06/26 04:55:51;;;;;;;11.57;8.13;;;;;;;26.18;62.53;100774.84;4980215;28;20077;-89
2023/06/26 04:58:26;;;;;;;10.60;7.65;;;;;;;26.06;62.70;100748.25;5000414;28;20061;-89
2023/06/26 05:00:53;;;;;;;11.80;8.13;;;;;;;26.19;62.68;100773.97;4993153;28;20053;-87
2023/06/26 05:03:18;;;;;;;10.07;7.75;;;;;;;26.02;62.68;100747.38;4995572;28;20105;-88
2023/06/26 05:05:44;;;;;;;;;;;;;;;26.25;63.05;100770.34;5004747;28;20161;-90
2023/06/26 05:08:17;;;;;;;9.85;7.38;;;;;;;26.20;62.54;100773.97;4992917;28;19973;-82
2023/06/26 05:10:45;;;;;;;9.40;7.65;;;;;;;26.22;62.70;100779.28;4974192;28;20023;-88
2023/06/26 05:13:14;;;;;;;8.05;7.22;;;;;;;26.24;62.51;100779.28;4989048;28;20030;-88
2023/06/26 05:15:41;;;;;;;8.32;7.40;;;;;;;26.19;63.15;100768.63;4984063;28;20061;-88
2023/06/26 05:18:07;;;;;;;10.38;8.07;;;;;;;26.16;62.38;100780.25;4981125;28;20022;-88
2023/06/26 05:20:34;;;;;;;;;;;;;;;26.21;62.89;100774.84;4975265;28;20092;-91
2023/06/26 05:23:06;;;;;;;9.30;7.45;;;;;;;26.00;63.17;100739.34;4988575;28;19917;-92
2023/06/26 05:25:34;;;;;;;11.45;7.93;;;;;;;26.21;63.16;100777.53;4962074;28;20042;-88
2023/06/26 05:28:27;;;;;;;8.90;7.70;;;;;;;26.22;62.71;100781.94;4977843;28;20045;-93
2023/06/26 05:30:57;;;;;;;10.27;7.68;;;;;;;26.16;62.37;100766.88;4994371;28;20050;-90
2023/06/26 05:33:37;;;;;;;10.75;7.55;;;;;;;26.21;62.63;100769.50;4990719;28;20556;-93
2023/06/26 05:36:48;;;;;;;12.77;8.43;;;;;;;26.24;62.77;100776.59;4999846;28;20157;-93
2023/06/26 05:39:26;;;;;;;9.38;7.80;;;;;;;26.11;62.29;100773.16;4982224;28;20027;-91
2023/06/26 05:41:57;;;;;;;11.27;8.32;;;;;;;26.21;62.57;100788.22;4955339;28;20030;-93
2023/06/26 05:44:35;;;;;;;9.52;7.60;;;;;;;26.09;62.64;100765.13;4971863;28;20029;-92
2023/06/26 05:47:05;;;;;;;10.20;8.02;;;;;;;26.19;62.95;100792.72;4961945;28;20026;-91
2023/06/26 05:49:42;;;;;;;11.52;7.65;;;;;;;26.18;62.69;100797.19;4989270;28;20029;-90
2023/06/26 05:52:08;;;;;;;;;;;;;;;26.29;62.54;100806.88;4995647;28;20073;-94
2023/06/26 05:54:37;;;;;;;8.90;7.28;;;;;;;26.27;62.24;100806.00;4965504;28;19914;-93
2023/06/26 05:57:08;;;;;;;10.35;7.43;;;;;;;26.18;62.68;100782.88;4989502;28;20409;-93
2023/06/26 05:59:41;;;;;;;9.68;7.38;;;;;;;26.29;62.78;100793.47;4961150;28;20503;-92
2023/06/26 06:02:09;;;;;;;10.10;7.45;;;;;;;26.20;62.23;100787.34;4959570;28;20122;-91
2023/06/26 06:04:44;;;;;;;9.65;7.32;;;;;;;26.04;61.98;100750.03;4961063;28;20041;-92
2023/06/26 06:07:10;;;;;;;8.73;7.03;;;;;;;26.32;62.85;100794.34;4983615;28;20031;-90
2023/06/26 06:09:37;;;;;;;7.88;7.03;;;;;;;26.26;63.00;100788.16;4966935;28;20030;-90
2023/06/26 06:12:07;;;;;;;8.00;7.20;;;;;;;26.14;62.70;100773.09;4993605;28;20404;-91
2023/06/26 06:14:34;;;;;;;8.25;7.35;;;;;;;26.28;62.40;100786.38;4965102;28;20073;-92
2023/06/26 06:17:00;;;;;;;8.90;7.15;;;;;;;26.05;62.37;100744.66;4962416;28;20158;-91
2023/06/26 06:19:27;;;;;;;;;;;;;;;26.35;61.90;100804.13;4985770;28;20059;-91
2023/06/26 06:21:53;;;;;;;11.00;7.90;;;;;;;26.21;61.86;100780.19;4976157;28;20004;-91
2023/06/26 06:24:18;;;;;;;;;;;;;;;26.36;62.28;100800.56;4992549;28;20031;-90
2023/06/26 06:26:44;;;;;;;8.95;7.32;;;;;;;26.38;62.36;100799.63;4992121;28;19914;-91
2023/06/26 06:29:26;;;;;;;8.95;7.15;;;;;;;26.28;62.19;100783.69;4970911;28;20505;-92
2023/06/26 06:31:51;;;;;;;8.07;7.18;;;;;;;26.31;62.69;100795.25;4973430;28;20056;-92
2023/06/26 06:34:28;;;;;;;;;;;;;;;26.38;62.24;100798.75;4976697;28;20030;-91
2023/06/26 06:36:59;;;;;;;9.15;6.82;;;;;;;26.33;61.85;100808.59;4993052;28;20397;-94
2023/06/26 06:39:26;;;;;;;8.57;7.28;;;;;;;26.11;62.83;100760.66;4960470;28;20030;-94
2023/06/26 06:41:52;;;;;;;9.05;7.38;;;;;;;26.12;61.50;100756.19;4960503;28;20137;-93
2023/06/26 06:44:18;;;;;;;8.43;7.50;;;;;;;26.34;61.96;100802.38;4985259;28;20035;-94
2023/06/26 06:46:45;;;;;;;;;;;;;;;26.35;61.99;100793.41;4976133;28;20024;-93
2023/06/26 06:49:11;;;;;;;8.70;6.82;;;;;;;26.25;62.22;100781.06;4992340;28;19914;-89
2023/06/26 06:51:36;;;;;;;;;;;;;;;26.40;62.44;100797.84;4958331;28;20467;-88
2023/06/26 06:54:02;;;;;;;7.78;6.97;;;;;;;26.15;62.04;100758.84;4989429;28;19973;-88
2023/06/26 06:56:28;;;;;;;;;;;;;;;26.34;61.87;100788.97;4982845;28;20029;-87
2023/06/26 06:58:53;;;;;;;8.13;6.95;;;;;;;26.18;61.59;100762.38;4990407;28;19948;-87
2023/06/26 07:01:19;;;;;;;;;;;;;;;26.37;62.50;100788.94;4974984;28;20038;-90
2023/06/26 07:03:44;;;;;;;10.60;7.53;;;;;;;26.34;61.89;100789.84;4972428;28;19921;-88
2023/06/26 07:06:10;;;;;;;9.48;7.03;;;;;;;25.80;62.38;100704.75;4992225;28;20022;-89
2023/06/26 07:08:35;;;;;;;;;;;;;;;26.39;62.54;100801.44;4964621;28;20077;-88
2023/06/26 07:11:01;;;;;;;9.30;7.40;;;;;;;26.31;61.90;100786.31;4987664;28;20363;-88
2023/06/26 07:13:26;;;;;;;;;;;;;;;26.40;62.88;100791.59;4992140;28;20469;-88
2023/06/26 07:15:52;;;;;;;8.05;6.97;;;;;;;26.16;62.19;100765.94;4973869;28;19918;-87
2023/06/26 07:18:17;;;;;;;7.80;7.00;;;;;;;26.36;62.52;100798.75;4974450;28;20055;-88
2023/06/26 07:20:43;;;;;;;;;;;;;;;26.39;62.39;100795.16;4986203;28;20061;-86
2023/06/26 07:23:09;;;;;;;8.38;7.50;;;;;;;26.32;62.10;100794.34;4987965;28;19914;-87
2023/06/26 07:25:34;;;;;;;;;;;;;;;26.37;61.78;100800.56;4961430;28;20023;-87
2023/06/26 07:28:01;;;;;;;7.65;6.85;;;;;;;26.23;62.23;100777.50;4984440;28;19913;-87
2023/06/26 07:30:26;;;;;;;9.00;7.20;;;;;;;26.33;62.91;100796.13;4984007;28;20031;-88
2023/06/26 07:32:52;;;;;;;;;;;;;;;26.36;62.74;100793.41;4999081;28;20075;-89
2023/06/26 07:35:18;;;;;;;8.60;7.10;;;;;;;26.32;62.72;100789.00;4999031;28;19920;-89
2023/06/26 07:37:43;;;;;;;8.00;7.20;;;;;;;26.18;62.83;100780.22;5003350;28;20058;-89
2023/06/26 07:40:09;;;;;;;8.43;7.05;;;;;;;26.27;62.90;100803.31;4991887;28;20030;-88
2023/06/26 07:42:35;;;;;;;10.05;7.63;;;;;;;26.33;63.62;100809.53;4983561;28;20041;-87
2023/06/26 07:45:01;;;;;;;;;;;;;;;26.31;63.37;100811.31;5002184;28;20022;-90
2023/06/26 07:47:26;;;;;;;8.80;7.18;;;;;;;26.30;62.33;100814.00;4992887;28;19918;-87
2023/06/26 07:49:52;;;;;;;;;;;;;;;26.32;63.33;100818.44;4983342;28;20543;-86
2023/06/26 07:52:18;;;;;;;8.73;7.05;;;;;;;26.26;62.96;100804.25;4993411;28;20020;-92
2023/06/26 07:54:44;;;;;;;10.98;7.60;;;;;;;26.29;62.76;100817.56;5004202;28;20072;-89
2023/06/26 07:57:11;;;;;;;;;;;;;;;26.36;63.35;100816.63;5009920;28;20111;-88
2023/06/26 07:59:37;;;;;;;8.93;7.50;;;;;;;26.30;63.53;100820.25;5009106;28;20048;-91
2023/06/26 08:02:03;;;;;;;9.38;7.60;;;;;;;26.18;63.37;100801.63;5009465;28;20088;-89
2023/06/26 08:04:33;;;;;;;8.93;7.80;;;;;;;26.16;63.02;100807.00;5007109;28;20117;-92
2023/06/26 08:07:00;;;;;;;9.25;7.32;;;;;;;26.24;63.42;100827.44;4977894;28;20030;-91
2023/06/26 08:09:27;;;;;;;9.18;6.88;;;;;;;26.28;63.81;100834.56;5004164;28;20029;-89
2023/06/26 08:11:54;;;;;;;8.82;7.80;;;;;;;26.23;62.42;100837.28;5004927;28;20031;-90
2023/06/26 08:14:38;;;;;;;10.95;7.60;;;;;;;26.18;62.84;100841.78;5000432;28;20658;-89
2023/06/26 08:17:04;;;;;;;10.18;7.85;;;;;;;26.22;63.07;100842.66;4990439;28;20092;-89
2023/06/26 08:19:43;;;;;;;;;;;;;;;26.27;63.65;100839.03;4997397;28;20023;-90
2023/06/26 08:22:08;;;;;;;10.23;7.72;;;;;;;26.07;63.70;100814.22;4995920;28;19925;-90
2023/06/26 08:24:34;;;;;;;;;;;;;;;26.21;63.55;100833.72;4979958;28;20024;-90
2023/06/26 08:27:00;;;;;;;11.30;7.93;;;;;;;26.16;63.20;100831.09;4993740;28;19956;-91
2023/06/26 08:29:27;;;;;;;10.52;7.07;;;;;;;26.16;63.22;100830.19;4994319;28;20089;-90
2023/06/26 08:31:52;;;;;;;8.43;7.47;;;;;;;26.16;62.16;100843.56;4994831;28;20053;-91
2023/06/26 08:34:18;;;;;;;;;;;;;;;26.16;63.27;100847.16;5009726;28;20033;-89
2023/06/26 08:36:44;;;;;;;10.45;7.63;;;;;;;26.17;63.04;100846.25;4988599;28;20000;-85
2023/06/26 08:39:10;;;;;;;10.63;7.53;;;;;;;26.20;62.74;100850.69;5005983;28;20108;-87
2023/06/26 08:41:36;;;;;;;;;;;;;;;26.22;63.74;100843.53;5013799;28;20555;-83
2023/06/26 08:44:03;;;;;;;10.07;8.10;;;;;;;26.14;62.51;100832.91;4975535;28;19972;-83
2023/06/26 08:46:28;;;;;;;8.82;7.15;;;;;;;26.22;62.94;100851.56;5000860;28;20085;-85
2023/06/26 08:48:57;;;;;;;;;;;;;;;26.26;62.47;100849.75;5015853;28;20450;-87
2023/06/26 08:51:28;;;;;;;10.90;7.78;;;;;;;26.19;63.25;100851.59;5023316;28;19913;-86
2023/06/26 08:54:01;;;;;;;9.35;7.88;;;;;;;26.19;62.80;100852.47;5002973;28;20121;-87
2023/06/26 08:56:36;;;;;;;10.23;7.80;;;;;;;26.00;62.81;100824.09;5005505;28;20517;-85
2023/06/26 08:59:02;;;;;;;10.45;7.88;;;;;;;26.05;63.37;100821.38;4983711;28;20029;-83
2023/06/26 09:01:27;;;;;;;;;;;;;;;26.24;62.68;100851.56;4998588;28;20412;-87
2023/06/26 09:03:53;;;;;;;8.70;7.75;;;;;;;26.20;63.01;100850.69;4993304;28;19925;-88
2023/06/26 09:06:18;;;;;;;8.57;7.68;;;;;;;26.06;62.78;100820.50;4978351;28;20045;-86
2023/06/26 09:08:44;;;;;;;9.55;7.70;;;;;;;26.23;62.97;100856.03;4992054;28;20512;-87
2023/06/26 09:11:09;;;;;;;;;;;;;;;26.25;62.91;100858.69;4995746;28;20102;-85
2023/06/26 09:13:35;;;;;;;10.10;7.88;;;;;;;26.09;62.43;100837.41;5002122;28;19925;-86
2023/06/26 09:16:06;;;;;;;9.02;7.45;;;;;;;25.96;62.88;100811.66;4994314;28;20076;-85
2023/06/26 09:18:32;;;;;;;8.48;7.60;;;;;;;26.14;62.97;100848.06;4991888;28;20112;-84
2023/06/26 09:20:58;;;;;;;8.10;7.22;;;;;;;26.20;63.46;100846.25;5009929;28;20026;-84
2023/06/26 09:23:23;;;;;;;;;;;;;;;26.24;62.59;100848.88;5010700;28;20056;-84
2023/06/26 09:25:51;;;;;;;10.00;8.02;;;;;;;26.24;62.99;100851.56;5010090;28;19921;-85
2023/06/26 09:28:16;;;;;;;9.88;7.93;;;;;;;26.24;62.34;100852.44;4994012;28;20034;-86
2023/06/26 09:30:42;;;;;;;;;;;;;;;26.25;62.55;100856.03;4997009;28;20064;-85
2023/06/26 09:33:18;;;;;;;9.52;7.65;;;;;;;26.19;63.50;100846.25;5009064;28;20392;-86
2023/06/26 09:35:45;;;;;;;8.63;7.20;;;;;;;26.09;62.71;100818.66;5008612;28;20504;-86
2023/06/26 09:38:12;;;;;;;9.05;8.00;;;;;;;26.17;62.84;100835.53;4996798;28;20026;-85
2023/06/26 09:40:38;;;;;;;8.13;6.97;;;;;;;26.08;62.19;100819.59;5004401;28;20130;-87
2023/06/26 09:43:06;;;;;;;;;;;;;;;26.28;63.16;100851.50;5009543;28;20548;-86
2023/06/26 09:45:38;;;;;;;8.60;7.20;;;;;;;26.26;63.00;100847.94;5000472;28;19960;-85
2023/06/26 09:48:05;;;;;;;9.23;7.22;;;;;;;26.26;62.78;100850.63;5006163;28;20193;-86
2023/06/26 09:50:34;;;;;;;8.82;7.30;;;;;;;26.25;62.27;100851.53;5013487;28;20064;-85
2023/06/26 09:53:08;;;;;;;9.20;8.13;;;;;;;26.29;62.66;100847.94;5001998;28;20519;-85
2023/06/26 09:55:38;;;;;;;8.98;7.43;;;;;;;26.11;62.54;100829.34;4994160;28;20051;-85
2023/06/26 09:58:04;;;;;;;9.30;7.85;;;;;;;26.32;62.58;100847.91;5013560;28;20022;-87
2023/06/26 10:00:32;;;;;;;8.30;7.00;;;;;;;26.25;62.50;100843.50;5011222;28;20034;-86
2023/06/26 10:02:59;;;;;;;10.63;8.02;;;;;;;26.14;62.06;100829.31;5000063;28;20018;-86
2023/06/26 10:05:25;;;;;;;8.88;7.57;;;;;;;26.15;62.36;100832.00;5008071;28;20408;-86
2023/06/26 10:07:50;;;;;;;;;;;;;;;26.30;62.31;100851.50;4991353;28;20491;-88
2023/06/26 10:10:16;;;;;;;8.73;7.40;;;;;;;26.14;62.25;100837.34;5011212;28;20297;-81
2023/06/26 10:12:41;;;;;;;;;;;;;;;26.25;62.53;100851.53;5020753;28;20033;-83
2023/06/26 10:15:12;;;;;;;9.45;7.70;;;;;;;26.20;62.87;100854.28;4998553;28;19919;-83
2023/06/26 10:17:39;;;;;;;9.23;7.55;;;;;;;26.16;62.37;100863.22;5002112;28;20022;-83
2023/06/26 10:20:06;;;;;;;12.00;7.97;;;;;;;26.18;61.56;100853.41;5010436;28;20064;-85
2023/06/26 10:22:40;;;;;;;9.63;7.65;;;;;;;26.18;60.41;100850.72;5003679;28;20026;-85
2023/06/26 10:25:07;;;;;;;7.82;6.90;;;;;;;26.35;59.69;100858.59;5011027;28;20571;-84
2023/06/26 10:27:36;;;;;;;7.93;7.10;;;;;;;26.35;59.18;100850.56;4995226;28;20021;-85
2023/06/26 10:30:12;;;;;;;9.63;7.35;;;;;;;26.51;58.65;100874.50;4992432;28;20018;-85
2023/06/26 10:32:38;;;;;;;;;;;;;;;26.55;58.39;100865.53;5005823;28;20042;-85
2023/06/26 10:35:06;;;;;;;7.95;6.88;;;;;;;26.58;57.88;100871.75;5020733;28;20007;-85
2023/06/26 10:38:06;;;;;;;8.10;7.10;;;;;;;26.62;57.98;100871.75;4991859;28;20037;-84
2023/06/26 10:40:44;;;;;;;7.97;6.50;;;;;;;26.65;57.71;100864.56;4981044;28;20070;-85
2023/06/26 10:43:12;;;;;;;8.90;7.07;;;;;;;26.60;57.38;100853.00;5007497;28;20136;-85
2023/06/26 10:45:45;;;;;;;8.38;6.22;;;;;;;26.65;57.33;100869.94;4993940;28;20028;-83
2023/06/26 10:48:14;;;;;;;8.63;6.35;;;;;;;26.70;57.30;100856.47;5001476;28;20052;-83
2023/06/26 10:50:39;;;;;;;8.77;5.90;;;;;;;26.63;57.05;100844.94;4993597;28;20096;-83
2023/06/26 10:53:13;;;;;;;;;;;;;;;26.70;57.11;100857.34;5001670;28;20109;-83
2023/06/26 10:55:59;;;;;;;7.05;6.35;;;;;;;26.71;56.75;100859.16;5012680;28;20010;-83
2023/06/26 10:58:34;;;;;;;7.35;6.35;;;;;;;26.74;56.78;100855.53;4991238;28;20022;-82
2023/06/26 11:01:12;;;;;;;7.22;6.20;;;;;;;26.72;56.80;100850.19;5002912;28;20101;-83
2023/06/26 11:03:42;;;;;;;6.82;6.10;;;;;;;26.75;56.74;100855.50;5007438;28;20397;-84
2023/06/26 11:06:12;;;;;;;7.90;6.35;;;;;;;26.74;56.78;100853.75;4988826;28;20029;-83
2023/06/26 11:08:55;;;;;;;8.00;6.18;;;;;;;26.76;56.37;100849.25;5005251;28;20501;-86
2023/06/26 11:11:22;;;;;;;6.93;5.93;;;;;;;26.63;56.36;100831.56;4982612;28;20026;-86
2023/06/26 11:13:48;;;;;;;7.30;6.28;;;;;;;26.68;56.29;100840.41;4991125;28;20555;-85
2023/06/26 11:16:14;;;;;;;;;;;;;;;26.79;56.38;100851.00;5013748;28;20104;-84
2023/06/26 11:18:40;;;;;;;7.85;6.30;;;;;;;26.52;56.19;100804.84;5009539;28;19918;-85
2023/06/26 11:21:11;;;;;;;7.25;6.10;;;;;;;26.63;56.17;100826.19;4976903;28;20145;-86
2023/06/26 11:23:37;;;;;;;7.70;6.47;;;;;;;26.57;56.06;100805.72;4993880;28;20044;-85
2023/06/26 11:26:16;;;;;;;;;;;;;;;26.80;55.84;100851.00;4996609;28;20070;-85
2023/06/26 11:28:55;;;;;;;8.73;6.13;;;;;;;26.66;55.83;100827.94;4994357;28;19966;-85
2023/06/26 11:31:25;;;;;;;7.20;6.30;;;;;;;26.80;55.57;100836.72;5024982;28;20022;-86
2023/06/26 11:33:52;;;;;;;7.35;6.30;;;;;;;26.82;55.72;100840.25;5015342;28;20025;-86
2023/06/26 11:36:18;;;;;;;7.35;5.90;;;;;;;26.84;55.66;100842.91;4979851;28;20172;-86
2023/06/26 11:38:43;;;;;;;;;;;;;;;26.86;55.66;100836.66;4977241;28;20029;-85
2023/06/26 11:41:09;;;;;;;7.78;6.13;;;;;;;26.69;55.73;100819.84;5011136;28;19948;-86